Time;durP1;ratioP1;P1;durP2;ratioP2;P2;SDS_P1;SDS_P2;PMS_P1;PMS_P2;Temp;Humidity;BMP_temperature;BMP_pressure;BME280_temperature;BME280_humidity;BME280_pressure;Samples;Min_cycle;Max_cycle;Signal;HPM_P1;HPM_P2
2021/07/12 00:02:15;;;;;;;9.10;3.92;;;12.20;99.90;;;;;;5070704;28;21004;-83
2021/07/12 00:04:42;;;;;;;10.02;3.58;;;12.10;99.90;;;;;;5080543;28;20786;-84
2021/07/12 00:07:09;;;;;;;9.73;3.95;;;12.10;99.90;;;;;;5083850;28;20397;-84
2021/07/12 00:09:36;;;;;;;8.68;3.60;;;12.10;99.90;;;;;;5060044;28;20417;-83
2021/07/12 00:12:04;;;;;;;10.67;4.90;;;12.00;99.90;;;;;;5071351;28;20430;-83
2021/07/12 00:14:31;;;;;;;11.32;3.30;;;12.00;99.90;;;;;;5088677;28;20463;-81
2021/07/12 00:17:00;;;;;;;7.80;3.50;;;11.90;99.90;;;;;;5088064;28;20396;-81
2021/07/12 00:19:27;;;;;;;8.55;3.45;;;11.90;99.90;;;;;;5080981;28;20400;-83
2021/07/12 00:21:54;;;;;;;7.87;2.70;;;11.90;99.90;;;;;;5082133;28;20437;-83
2021/07/12 00:24:21;;;;;;;13.32;3.17;;;12.10;99.90;;;;;;5086994;28;20444;-84
2021/07/12 00:26:48;;;;;;;12.55;2.65;;;12.10;99.90;;;;;;5066568;28;20385;-87
2021/07/12 00:29:16;;;;;;;19.67;2.80;;;12.30;99.90;;;;;;5068722;28;20402;-85
2021/07/12 00:31:43;;;;;;;10.10;3.47;;;12.60;99.90;;;;;;5072196;28;20461;-82
2021/07/12 00:34:10;;;;;;;5.15;1.38;;;12.80;99.90;;;;;;5072335;28;20443;-83
2021/07/12 00:36:37;;;;;;;21.45;8.57;;;12.80;99.90;;;;;;5072118;28;20436;-81
2021/07/12 00:39:05;;;;;;;7.65;3.17;;;12.70;99.90;;;;;;5071572;28;20493;-82
2021/07/12 00:41:32;;;;;;;6.27;1.93;;;12.70;99.90;;;;;;5072951;28;20390;-82
2021/07/12 00:43:59;;;;;;;9.48;2.00;;;12.60;99.90;;;;;;5088451;28;20396;-83
2021/07/12 00:46:26;;;;;;;5.97;1.85;;;12.70;99.90;;;;;;5052933;28;20429;-81
2021/07/12 00:48:53;;;;;;;10.32;2.33;;;12.80;99.90;;;;;;5070137;28;20721;-82
2021/07/12 00:51:21;;;;;;;6.30;3.05;;;12.90;99.90;;;;;;5071407;28;20374;-81
2021/07/12 00:53:49;;;;;;;10.70;4.03;;;13.10;99.90;;;;;;5071123;28;20948;-81
2021/07/12 00:56:17;;;;;;;4.60;1.75;;;13.20;99.90;;;;;;5070340;28;20406;-82
2021/07/12 00:58:44;;;;;;;6.87;1.80;;;13.30;99.90;;;;;;5071516;28;20386;-81
2021/07/12 01:01:11;;;;;;;5.15;1.60;;;13.30;99.90;;;;;;5068752;28;20907;-80
2021/07/12 01:03:39;;;;;;;6.13;1.88;;;13.40;99.90;;;;;;5075917;28;20406;-81
2021/07/12 01:06:06;;;;;;;13.38;4.85;;;13.50;99.90;;;;;;5070563;28;20899;-81
2021/07/12 01:08:34;;;;;;;7.75;2.47;;;13.50;99.90;;;;;;5071418;28;20865;-80
2021/07/12 01:11:01;;;;;;;12.68;5.13;;;13.50;99.90;;;;;;5076265;28;20382;-81
2021/07/12 01:13:31;;;;;;;7.35;2.60;;;13.40;99.90;;;;;;5071371;28;20385;-80
2021/07/12 01:16:15;;;;;;;8.60;2.80;;;13.40;99.90;;;;;;5069146;28;20382;-82
2021/07/12 01:18:59;;;;;;;8.93;2.70;;;13.40;99.90;;;;;;5074560;28;20726;-81
2021/07/12 01:22:10;;;;;;;6.82;2.67;;;13.30;99.90;;;;;;5115204;27;20381;-80
2021/07/12 01:25:07;;;;;;;6.00;2.53;;;13.40;99.90;;;;;;5067830;28;20395;-81
2021/07/12 01:27:51;;;;;;;6.82;2.72;;;13.40;99.90;;;;;;5090662;28;20373;-81
2021/07/12 01:30:56;;;;;;;7.68;2.40;;;13.40;99.90;;;;;;5085163;28;20423;-81
2021/07/12 01:33:35;;;;;;;7.43;2.20;;;13.50;99.90;;;;;;5062114;28;20758;-81
2021/07/12 01:36:14;;;;;;;6.22;2.58;;;13.40;99.90;;;;;;5069814;28;20378;-82
2021/07/12 01:39:04;;;;;;;8.77;2.53;;;13.50;99.90;;;;;;5086058;28;20471;-81
2021/07/12 01:41:46;;;;;;;9.87;2.90;;;13.60;99.90;;;;;;5082657;28;20390;-81
2021/07/12 01:44:26;;;;;;;6.85;2.72;;;13.70;99.90;;;;;;5088931;28;20748;-81
2021/07/12 01:47:24;;;;;;;9.93;3.22;;;13.80;99.90;;;;;;5089554;28;20411;-81
2021/07/12 01:50:19;;;;;;;9.82;2.80;;;13.80;99.90;;;;;;5079442;28;20386;-83
2021/07/12 01:53:10;;;;;;;7.25;2.20;;;13.80;99.90;;;;;;5068686;28;20382;-81
2021/07/12 01:56:06;;;;;;;8.23;2.15;;;13.70;99.90;;;;;;5082861;28;21118;-81
2021/07/12 01:58:54;;;;;;;7.03;2.10;;;13.70;99.90;;;;;;5083091;28;20394;-82
2021/07/12 02:01:24;;;;;;;7.70;2.03;;;13.70;99.90;;;;;;5081751;28;20384;-81
2021/07/12 02:03:53;;;;;;;9.45;2.08;;;13.70;99.90;;;;;;5068389;28;20437;-81
2021/07/12 02:06:20;;;;;;;4.97;1.45;;;13.70;99.90;;;;;;5069219;28;20899;-81
2021/07/12 02:08:51;;;;;;;7.43;1.67;;;13.60;99.90;;;;;;5078357;28;20432;-82
2021/07/12 02:11:18;;;;;;;6.15;1.85;;;13.60;99.90;;;;;;5090215;28;20383;-82
2021/07/12 02:13:48;;;;;;;4.88;1.65;;;13.60;99.90;;;;;;5074238;28;20761;-82
2021/07/12 02:16:19;;;;;;;6.97;1.77;;;13.60;99.90;;;;;;5069407;28;20378;-81
2021/07/12 02:18:47;;;;;;;6.07;1.75;;;13.50;99.90;;;;;;5070353;28;20382;-83
2021/07/12 02:21:15;;;;;;;6.45;1.70;;;13.60;99.90;;;;;;5069319;28;20386;-82
2021/07/12 02:23:44;;;;;;;6.38;1.55;;;13.60;99.90;;;;;;5075727;28;20401;-82
2021/07/12 02:26:14;;;;;;;6.35;1.98;;;13.70;99.90;;;;;;5074383;28;20380;-81
2021/07/12 02:28:44;;;;;;;7.68;1.75;;;13.80;99.90;;;;;;5085809;28;20473;-80
2021/07/12 02:31:14;;;;;;;6.68;1.75;;;14.10;99.90;;;;;;5079791;28;20392;-81
2021/07/12 02:33:42;;;;;;;5.93;1.65;;;14.30;99.90;;;;;;5082233;28;20382;-81
2021/07/12 02:36:10;;;;;;;7.60;2.13;;;14.40;99.90;;;;;;5069870;28;20369;-82
2021/07/12 02:38:39;;;;;;;6.35;1.83;;;14.40;99.90;;;;;;5071922;28;21045;-81
2021/07/12 02:41:06;;;;;;;5.93;1.73;;;14.40;99.90;;;;;;5072115;28;20478;-82
2021/07/12 02:43:38;;;;;;;4.93;1.80;;;14.50;99.90;;;;;;5083626;28;20432;-82
2021/07/12 02:46:06;;;;;;;7.45;2.10;;;14.50;99.90;;;;;;5071080;28;20469;-82
2021/07/12 02:48:33;;;;;;;6.28;1.60;;;14.60;99.90;;;;;;5068166;28;20387;-82
2021/07/12 02:51:06;;;;;;;5.18;1.30;;;14.40;99.90;;;;;;5069945;28;20944;-81
2021/07/12 02:53:39;;;;;;;7.78;1.80;;;14.40;99.90;;;;;;5075002;28;20460;-81
2021/07/12 02:56:06;;;;;;;10.18;2.78;;;14.50;99.90;;;;;;5067942;28;20374;-81
2021/07/12 02:58:33;;;;;;;12.33;2.40;;;14.60;99.90;;;;;;5069264;28;20461;-82
2021/07/12 03:01:00;;;;;;;6.45;1.48;;;14.70;99.90;;;;;;5067944;28;20378;-81
2021/07/12 03:03:27;;;;;;;9.38;1.98;;;14.80;99.90;;;;;;5070121;28;20409;-81
2021/07/12 03:06:01;;;;;;;6.80;1.67;;;15.00;99.90;;;;;;5076756;28;20406;-81
2021/07/12 03:08:39;;;;;;;3.08;1.30;;;14.90;99.90;;;;;;5068222;28;20386;-82
2021/07/12 03:11:09;;;;;;;5.00;1.60;;;14.90;99.90;;;;;;5087239;28;20513;-81
2021/07/12 03:13:50;;;;;;;6.40;1.42;;;15.00;99.90;;;;;;5070472;28;20382;-82
2021/07/12 03:16:18;;;;;;;4.50;1.40;;;15.20;99.90;;;;;;5069253;28;20401;-82
2021/07/12 03:18:58;;;;;;;5.80;1.52;;;15.20;99.90;;;;;;5067757;28;20378;-82
2021/07/12 03:21:26;;;;;;;3.70;1.20;;;15.30;99.90;;;;;;5080873;28;20465;-82
2021/07/12 03:23:56;;;;;;;4.63;1.08;;;15.30;99.90;;;;;;5087569;28;20506;-82
2021/07/12 03:26:24;;;;;;;1.98;0.57;;;15.30;99.90;;;;;;5085675;28;20371;-82
2021/07/12 03:28:55;;;;;;;4.63;1.27;;;15.30;99.90;;;;;;5086588;28;20474;-81
2021/07/12 03:31:25;;;;;;;5.32;1.52;;;15.40;99.90;;;;;;5072492;28;20420;-81
2021/07/12 03:33:54;;;;;;;3.72;0.90;;;15.20;99.90;;;;;;5066942;28;20725;-82
2021/07/12 03:36:22;;;;;;;3.45;0.73;;;15.20;99.90;;;;;;5070989;28;20378;-82
2021/07/12 03:38:50;;;;;;;2.30;0.77;;;15.10;99.90;;;;;;5080372;28;20389;-83
2021/07/12 03:41:18;;;;;;;3.38;0.75;;;15.10;99.90;;;;;;5071843;28;20401;-82
2021/07/12 03:43:45;;;;;;;6.82;1.10;;;15.00;99.90;;;;;;5056885;28;20467;-82
2021/07/12 03:46:12;;;;;;;6.45;1.10;;;15.00;99.90;;;;;;5089045;28;20381;-82
2021/07/12 03:48:42;;;;;;;6.13;1.20;;;15.00;99.90;;;;;;5080960;28;20394;-82
2021/07/12 03:51:15;;;;;;;4.90;1.33;;;14.90;99.90;;;;;;5079906;28;20376;-82
2021/07/12 03:53:42;;;;;;;3.72;0.70;;;14.80;99.90;;;;;;5054777;28;20861;-83
2021/07/12 03:56:09;;;;;;;1.65;0.70;;;14.80;99.90;;;;;;5067478;28;20461;-83
2021/07/12 03:58:36;;;;;;;7.78;1.00;;;14.80;99.90;;;;;;5071598;28;20385;-83
2021/07/12 04:01:04;;;;;;;2.87;0.90;;;14.80;99.90;;;;;;5087485;28;20412;-83
2021/07/12 04:03:31;;;;;;;5.10;1.23;;;14.80;99.90;;;;;;5087896;28;20469;-82
2021/07/12 04:05:58;;;;;;;3.58;0.75;;;14.80;99.90;;;;;;5092908;28;20834;-83
2021/07/12 04:08:25;;;;;;;4.05;0.98;;;15.00;99.90;;;;;;5078719;28;20868;-81
2021/07/12 04:10:52;;;;;;;4.35;0.77;;;15.10;99.90;;;;;;5088390;28;20372;-82
2021/07/12 04:13:19;;;;;;;3.35;1.00;;;15.10;99.90;;;;;;5089215;28;20880;-82
2021/07/12 04:15:46;;;;;;;3.15;0.90;;;15.10;99.90;;;;;;5085920;28;20902;-83
2021/07/12 04:18:14;;;;;;;3.17;0.90;;;15.00;99.90;;;;;;5071297;28;20462;-83
2021/07/12 04:20:41;;;;;;;5.85;0.98;;;15.00;99.90;;;;;;5068815;28;20378;-83
2021/07/12 04:23:10;;;;;;;2.85;0.80;;;14.90;99.90;;;;;;5070933;28;20413;-83
2021/07/12 04:25:37;;;;;;;3.80;1.00;;;14.90;99.90;;;;;;5072199;28;20384;-82
2021/07/12 04:28:04;;;;;;;2.90;1.10;;;14.70;99.90;;;;;;5076158;28;20437;-83
2021/07/12 04:30:32;;;;;;;3.75;0.80;;;14.60;99.90;;;;;;5077632;28;20376;-82
2021/07/12 04:32:59;;;;;;;4.93;1.20;;;14.50;99.90;;;;;;5084227;28;21331;-84
2021/07/12 04:35:27;;;;;;;5.18;0.88;;;14.50;99.90;;;;;;5071719;28;20455;-82
2021/07/12 04:37:54;;;;;;;6.63;0.73;;;14.40;99.90;;;;;;5072485;28;20433;-82
2021/07/12 04:40:21;;;;;;;8.52;1.60;;;14.40;99.90;;;;;;5087136;28;20388;-82
2021/07/12 04:42:48;;;;;;;4.78;1.13;;;14.40;99.90;;;;;;5085227;28;20927;-85
2021/07/12 04:45:15;;;;;;;5.80;1.33;;;14.40;99.90;;;;;;5071069;28;20412;-83
2021/07/12 04:47:42;;;;;;;4.63;1.13;;;14.50;99.90;;;;;;5070813;28;20382;-83
2021/07/12 04:50:10;;;;;;;3.13;1.15;;;14.50;99.90;;;;;;5070872;28;20386;-86
2021/07/12 04:52:37;;;;;;;2.55;1.00;;;14.50;99.90;;;;;;5070958;28;20378;-86
2021/07/12 04:55:06;;;;;;;4.43;0.97;;;14.40;99.90;;;;;;5071016;28;20809;-87
2021/07/12 04:57:34;;;;;;;5.28;0.75;;;14.50;99.90;;;;;;5085797;28;20380;-85
2021/07/12 05:00:03;;;;;;;4.55;0.70;;;14.50;99.90;;;;;;5092069;28;20373;-84
2021/07/12 05:02:30;;;;;;;5.90;0.95;;;14.50;99.90;;;;;;5089093;28;20397;-86
2021/07/12 05:04:57;;;;;;;3.60;1.10;;;14.40;99.90;;;;;;5091993;28;20383;-87
2021/07/12 05:07:25;;;;;;;3.25;0.95;;;14.40;99.90;;;;;;5077763;28;20409;-84
2021/07/12 05:09:53;;;;;;;2.95;0.88;;;14.40;99.90;;;;;;5072808;28;20382;-83
2021/07/12 05:12:21;;;;;;;5.25;1.08;;;14.40;99.90;;;;;;5070153;28;20379;-83
2021/07/12 05:14:49;;;;;;;3.05;1.10;;;14.40;99.90;;;;;;5075156;28;20880;-85
2021/07/12 05:17:16;;;;;;;8.77;1.10;;;14.50;99.90;;;;;;5089226;28;20411;-84
2021/07/12 05:19:43;;;;;;;4.35;1.73;;;14.50;99.90;;;;;;5091509;28;20899;-90
2021/07/12 05:22:11;;;;;;;1.88;0.90;;;14.50;99.90;;;;;;5085049;28;20957;-87
2021/07/12 05:24:38;;;;;;;4.07;0.93;;;14.50;99.90;;;;;;5069354;28;20413;-89
2021/07/12 05:27:06;;;;;;;3.55;0.90;;;14.40;99.90;;;;;;5087841;28;20413;-90
2021/07/12 05:29:35;;;;;;;3.50;1.00;;;14.40;99.90;;;;;;5076314;28;20393;-87
2021/07/12 05:32:07;;;;;;;3.28;1.10;;;14.40;99.90;;;;;;5085828;28;20389;-86
2021/07/12 05:34:34;;;;;;;5.20;1.02;;;14.30;99.90;;;;;;5049311;28;20415;-86
2021/07/12 05:37:02;;;;;;;3.55;0.98;;;14.20;99.90;;;;;;5071493;28;20398;-87
2021/07/12 05:39:31;;;;;;;3.47;1.15;;;14.20;99.90;;;;;;5069050;28;20374;-88
2021/07/12 05:41:57;;;;;;;10.75;1.40;;;14.20;99.90;;;;;;5069981;28;20409;-85
2021/07/12 05:44:24;;;;;;;5.07;1.35;;;14.20;99.90;;;;;;5071403;28;20416;-87
2021/07/12 05:46:54;;;;;;;4.55;1.13;;;14.10;99.90;;;;;;5067918;28;20534;-87
2021/07/12 05:49:21;;;;;;;4.13;1.23;;;14.10;99.90;;;;;;5068907;28;20397;-87
2021/07/12 05:51:49;;;;;;;6.95;1.20;;;14.10;99.90;;;;;;5069760;28;20374;-86
2021/07/12 05:54:16;;;;;;;7.88;1.27;;;14.10;99.90;;;;;;5049697;28;20488;-88
2021/07/12 05:56:43;;;;;;;6.28;1.60;;;14.10;99.90;;;;;;5067884;28;20818;-88
2021/07/12 05:59:10;;;;;;;5.22;1.40;;;14.00;99.90;;;;;;5070684;28;20477;-89
2021/07/12 06:01:37;;;;;;;7.07;1.50;;;14.00;99.90;;;;;;5078133;28;20420;-88
2021/07/12 06:04:04;;;;;;;3.20;1.38;;;13.80;99.90;;;;;;5087325;28;20392;-88
2021/07/12 06:06:36;;;;;;;4.32;1.35;;;13.80;99.90;;;;;;5091809;28;20376;-89
2021/07/12 06:09:03;;;;;;;4.37;1.27;;;13.80;99.90;;;;;;5090582;28;20802;-86
2021/07/12 06:11:30;;;;;;;5.53;1.60;;;13.70;99.90;;;;;;5089752;28;20399;-89
2021/07/12 06:13:57;;;;;;;4.05;1.33;;;13.60;99.90;;;;;;5086983;28;20376;-90
2021/07/12 06:16:25;;;;;;;5.47;1.50;;;13.60;99.90;;;;;;5082776;28;20423;-87
2021/07/12 06:18:52;;;;;;;6.63;2.10;;;13.50;99.90;;;;;;5080561;28;20384;-86
2021/07/12 06:21:19;;;;;;;8.10;1.90;;;13.50;99.90;;;;;;5087009;28;20395;-85
2021/07/12 06:23:46;;;;;;;7.50;2.40;;;13.50;99.90;;;;;;5082705;28;20437;-84
2021/07/12 06:26:14;;;;;;;5.28;2.08;;;13.40;99.90;;;;;;5069314;28;20745;-83
2021/07/12 06:28:41;;;;;;;10.68;2.15;;;13.30;99.90;;;;;;5072365;28;20529;-82
2021/07/12 06:31:08;;;;;;;9.47;2.20;;;13.30;99.90;;;;;;5080342;28;20452;-83
2021/07/12 06:33:36;;;;;;;7.82;1.70;;;13.20;99.90;;;;;;5073335;28;20405;-83
2021/07/12 06:36:03;;;;;;;9.05;2.15;;;13.20;99.90;;;;;;5079396;28;20384;-85
2021/07/12 06:38:31;;;;;;;6.35;2.20;;;13.10;99.90;;;;;;5083771;28;20390;-86
2021/07/12 06:40:59;;;;;;;9.63;2.35;;;13.10;99.90;;;;;;5080289;28;20460;-86
2021/07/12 06:43:26;;;;;;;10.75;2.83;;;13.00;99.90;;;;;;5067007;28;20455;-87
2021/07/12 06:45:55;;;;;;;8.68;2.08;;;13.00;99.90;;;;;;5068552;28;20723;-87
2021/07/12 06:48:22;;;;;;;15.25;3.08;;;13.00;99.90;;;;;;5067931;28;20386;-85
2021/07/12 06:50:49;;;;;;;14.10;3.05;;;12.90;99.90;;;;;;5067444;28;20421;-83
2021/07/12 06:53:16;;;;;;;8.93;3.20;;;12.80;99.90;;;;;;5067723;28;20393;-84
2021/07/12 06:55:43;;;;;;;14.43;3.70;;;12.80;99.90;;;;;;5067686;28;20738;-84
2021/07/12 06:58:12;;;;;;;12.50;3.83;;;12.70;99.90;;;;;;5048181;28;20387;-85
2021/07/12 07:00:43;;;;;;;12.82;3.17;;;12.60;99.90;;;;;;5083903;27;20908;-84
2021/07/12 07:03:13;;;;;;;11.23;2.88;;;12.60;99.90;;;;;;5066270;28;20405;-85
2021/07/12 07:05:40;;;;;;;11.23;3.58;;;12.50;99.90;;;;;;5067010;28;20928;-85
2021/07/12 07:08:07;;;;;;;11.18;3.42;;;12.50;99.90;;;;;;5066195;28;20455;-86
2021/07/12 07:10:34;;;;;;;13.93;2.90;;;12.40;99.90;;;;;;5068792;28;20413;-85
2021/07/12 07:13:01;;;;;;;14.60;3.58;;;12.40;99.90;;;;;;5071773;28;20397;-84
2021/07/12 07:15:29;;;;;;;11.77;3.55;;;12.30;99.90;;;;;;5073444;28;20384;-85
2021/07/12 07:17:56;;;;;;;9.93;2.80;;;12.20;99.90;;;;;;5105232;28;20451;-83
2021/07/12 07:20:23;;;;;;;11.77;3.13;;;12.10;99.90;;;;;;5071606;28;20378;-86
2021/07/12 07:22:50;;;;;;;13.50;3.67;;;12.10;99.90;;;;;;5064782;28;20467;-85
2021/07/12 07:25:17;;;;;;;11.57;2.72;;;12.00;99.90;;;;;;5070936;28;20378;-85
2021/07/12 07:27:45;;;;;;;12.93;3.47;;;11.90;99.90;;;;;;5067569;28;20426;-86
2021/07/12 07:30:13;;;;;;;11.25;3.15;;;11.90;99.90;;;;;;5076079;28;20388;-85
2021/07/12 07:32:41;;;;;;;16.77;4.30;;;11.80;99.90;;;;;;5069063;28;20421;-85
2021/07/12 07:35:08;;;;;;;9.05;3.47;;;11.80;99.90;;;;;;5069423;28;20394;-87
2021/07/12 07:37:36;;;;;;;11.25;4.05;;;11.70;99.90;;;;;;5069844;28;20400;-86
2021/07/12 07:40:07;;;;;;;14.55;3.58;;;11.70;99.90;;;;;;5081443;28;20419;-87
2021/07/12 07:42:34;;;;;;;11.90;3.40;;;11.60;99.90;;;;;;5068446;28;20423;-88
2021/07/12 07:45:02;;;;;;;13.32;3.83;;;11.60;99.90;;;;;;5068737;28;20382;-88
2021/07/12 07:47:30;;;;;;;12.75;4.07;;;11.60;99.90;;;;;;5068863;28;20390;-89
2021/07/12 07:49:57;;;;;;;16.13;4.53;;;11.50;99.90;;;;;;5076843;28;20393;-87
2021/07/12 07:52:24;;;;;;;14.70;4.63;;;11.50;99.90;;;;;;5089226;28;20870;-88
2021/07/12 07:54:51;;;;;;;12.80;4.40;;;11.50;99.90;;;;;;5078543;28;20396;-88
2021/07/12 07:57:19;;;;;;;12.75;4.05;;;11.50;99.90;;;;;;5080162;28;20884;-88
2021/07/12 07:59:46;;;;;;;12.38;3.92;;;11.50;99.90;;;;;;5088509;28;20862;-85
2021/07/12 08:02:12;;;;;;;16.73;4.13;;;11.50;99.90;;;;;;5087570;28;20449;-84
2021/07/12 08:04:40;;;;;;;12.45;3.80;;;11.50;99.90;;;;;;5088690;28;20396;-86
2021/07/12 08:07:07;;;;;;;10.85;4.25;;;11.40;99.90;;;;;;5076583;28;20378;-85
2021/07/12 08:09:34;;;;;;;12.80;3.97;;;11.50;99.90;;;;;;5075985;28;20774;-85
2021/07/12 08:12:01;;;;;;;12.52;4.28;;;11.40;99.90;;;;;;5087911;28;20411;-86
2021/07/12 08:14:28;;;;;;;16.13;5.68;;;11.40;99.90;;;;;;5088038;28;20475;-88
2021/07/12 08:16:57;;;;;;;20.15;11.23;;;11.40;99.90;;;;;;5088396;28;20384;-87
2021/07/12 08:19:24;;;;;;;22.40;11.90;;;11.30;99.90;;;;;;5088341;28;20376;-87
2021/07/12 08:21:51;;;;;;;18.00;8.63;;;11.20;99.90;;;;;;5079158;28;20413;-88
2021/07/12 08:24:18;;;;;;;19.65;8.02;;;11.20;99.90;;;;;;5074069;28;20477;-88
2021/07/12 08:26:45;;;;;;;14.90;7.00;;;11.10;99.90;;;;;;5068176;28;20428;-89
2021/07/12 08:29:12;;;;;;;19.23;9.25;;;11.00;99.90;;;;;;5072347;28;20737;-87
2021/07/12 08:31:40;;;;;;;17.30;9.55;;;10.90;99.90;;;;;;5088433;28;20420;-88
2021/07/12 08:34:07;;;;;;;18.07;8.20;;;10.90;99.90;;;;;;5088174;28;20423;-88
2021/07/12 08:36:33;;;;;;;16.55;7.40;;;10.80;99.90;;;;;;5082070;28;20881;-87
2021/07/12 08:39:00;;;;;;;22.30;6.35;;;10.90;99.90;;;;;;5067860;28;20375;-88
2021/07/12 08:41:28;;;;;;;16.38;6.47;;;10.90;99.90;;;;;;5068757;28;20860;-88
2021/07/12 08:43:56;;;;;;;12.75;4.97;;;10.90;99.90;;;;;;5033988;28;20424;-88
2021/07/12 08:46:25;;;;;;;10.52;4.75;;;11.10;99.90;;;;;;5051030;28;20386;-88
2021/07/12 08:48:52;;;;;;;12.23;4.30;;;11.00;99.90;;;;;;5050328;28;20393;-89
2021/07/12 08:51:19;;;;;;;12.27;4.07;;;11.10;99.90;;;;;;5072532;28;20389;-89
2021/07/12 08:53:47;;;;;;;10.32;4.18;;;11.10;99.90;;;;;;5055762;28;20398;-89
2021/07/12 08:56:15;;;;;;;13.10;4.28;;;11.10;99.90;;;;;;5054025;28;20390;-89
2021/07/12 08:58:42;;;;;;;18.17;3.80;;;11.10;99.90;;;;;;5051597;28;20492;-88
2021/07/12 09:01:09;;;;;;;14.88;3.83;;;11.10;99.90;;;;;;5036571;28;20421;-88
2021/07/12 09:03:42;;;;;;;13.43;3.75;;;11.10;99.90;;;;;;5054710;28;20474;-87
2021/07/12 09:06:10;;;;;;;7.32;3.28;;;11.10;99.90;;;;;;5053817;28;20378;-87
2021/07/12 09:08:53;;;;;;;14.90;4.20;;;11.00;99.90;;;;;;5054009;28;20389;-87
2021/07/12 09:11:26;;;;;;;10.60;3.65;;;11.00;99.90;;;;;;5054050;28;20560;-87
2021/07/12 09:13:58;;;;;;;10.82;3.67;;;11.00;99.90;;;;;;5055203;28;20374;-88
2021/07/12 09:16:46;;;;;;;17.13;3.72;;;11.00;99.90;;;;;;5053436;28;20448;-88
2021/07/12 09:19:18;;;;;;;8.63;3.10;;;11.00;99.90;;;;;;5055092;28;20481;-89
2021/07/12 09:21:50;;;;;;;11.00;3.58;;;11.00;99.90;;;;;;5054923;28;20417;-88
2021/07/12 09:24:20;;;;;;;8.45;3.25;;;11.00;99.90;;;;;;5055130;28;20417;-86
2021/07/12 09:26:51;;;;;;;10.10;3.27;;;10.90;99.90;;;;;;5055309;28;20439;-88
2021/07/12 09:29:24;;;;;;;10.95;3.38;;;11.00;99.90;;;;;;5056017;28;20374;-91
2021/07/12 09:31:53;;;;;;;10.50;2.90;;;11.00;99.90;;;;;;5032579;28;20946;-91
2021/07/12 09:34:21;;;;;;;10.23;3.50;;;10.90;99.90;;;;;;5053345;28;20930;-89
2021/07/12 09:36:48;;;;;;;13.63;4.00;;;10.90;99.90;;;;;;5055072;28;20382;-91
2021/07/12 09:39:26;;;;;;;9.95;3.85;;;10.80;99.90;;;;;;5054380;28;20374;-90
2021/07/12 09:41:56;;;;;;;9.70;3.60;;;10.70;99.90;;;;;;5056414;28;20385;-91
2021/07/12 09:44:26;;;;;;;10.07;3.70;;;10.60;99.90;;;;;;5055729;28;20764;-88
2021/07/12 09:46:54;;;;;;;9.43;3.63;;;10.60;99.90;;;;;;5055605;28;20861;-89
2021/07/12 09:49:26;;;;;;;13.48;3.90;;;10.60;99.90;;;;;;5054206;28;20386;-90
2021/07/12 09:51:56;;;;;;;11.00;4.15;;;10.50;99.90;;;;;;5044228;28;20417;-88
2021/07/12 09:54:33;;;;;;;9.70;3.87;;;10.50;99.90;;;;;;5045440;28;20609;-87
2021/07/12 09:57:11;;;;;;;9.57;3.90;;;10.50;99.90;;;;;;5053892;28;20382;-89
2021/07/12 09:59:54;;;;;;;9.82;3.97;;;10.50;99.90;;;;;;5040875;28;20384;-89
2021/07/12 10:02:25;;;;;;;8.98;4.07;;;10.40;99.90;;;;;;5040875;28;20402;-89
2021/07/12 10:05:00;;;;;;;13.43;4.47;;;10.40;99.90;;;;;;5036227;28;20869;-89
2021/07/12 10:07:28;;;;;;;11.18;4.32;;;10.40;99.90;;;;;;5039807;28;20382;-90
2021/07/12 10:09:56;;;;;;;9.32;4.22;;;10.40;99.90;;;;;;5052144;28;20413;-90
2021/07/12 10:12:29;;;;;;;9.87;4.40;;;10.40;99.90;;;;;;5054746;28;20438;-90
2021/07/12 10:14:56;;;;;;;9.88;4.38;;;10.30;99.90;;;;;;5071904;28;20435;-88
2021/07/12 10:17:24;;;;;;;12.25;4.47;;;10.30;99.90;;;;;;5052761;28;20386;-88
2021/07/12 10:19:51;;;;;;;10.90;4.20;;;10.30;99.90;;;;;;5038082;28;20406;-87
2021/07/12 10:22:23;;;;;;;10.82;4.30;;;10.30;99.90;;;;;;5051901;28;20889;-88
2021/07/12 10:24:51;;;;;;;8.93;3.53;;;10.30;99.90;;;;;;5052825;28;20393;-88
2021/07/12 10:27:28;;;;;;;10.05;3.70;;;10.30;99.90;;;;;;5054635;28;20406;-88
2021/07/12 10:29:57;;;;;;;8.80;3.78;;;10.30;99.90;;;;;;5039456;28;20407;-88
2021/07/12 10:32:26;;;;;;;7.43;3.20;;;10.30;99.90;;;;;;5032447;28;20399;-88
2021/07/12 10:34:56;;;;;;;10.07;3.83;;;10.30;99.90;;;;;;5037095;28;20464;-87
2021/07/12 10:37:40;;;;;;;9.17;3.27;;;10.30;99.90;;;;;;5053376;28;20424;-88
2021/07/12 10:40:14;;;;;;;10.30;4.13;;;10.30;99.90;;;;;;5053252;28;20378;-88
2021/07/12 10:42:45;;;;;;;11.30;3.88;;;10.30;99.90;;;;;;5064452;28;20400;-86
2021/07/12 10:45:22;;;;;;;8.70;3.83;;;10.20;99.90;;;;;;5083003;28;20384;-88
2021/07/12 10:48:01;;;;;;;17.70;6.78;;;10.10;99.90;;;;;;5091206;28;20381;-89
2021/07/12 10:50:49;;;;;;;8.02;4.78;;;10.10;99.90;;;;;;5080229;28;20852;-89
2021/07/12 10:53:16;;;;;;;9.60;3.80;;;10.10;99.90;;;;;;5070183;28;20452;-90
2021/07/12 10:55:45;;;;;;;6.22;3.83;;;10.10;99.90;;;;;;5082693;28;20391;-88
2021/07/12 10:58:29;;;;;;;10.27;4.40;;;10.10;99.90;;;;;;5069010;28;20420;-88
2021/07/12 11:00:59;;;;;;;10.32;4.47;;;10.10;99.90;;;;;;5081983;28;20389;-89
2021/07/12 11:03:48;;;;;;;8.52;4.40;;;10.00;99.90;;;;;;5088519;28;20408;-89
2021/07/12 11:06:18;;;;;;;8.75;4.70;;;10.00;99.90;;;;;;5070837;28;20432;-90
2021/07/12 11:08:48;;;;;;;10.20;4.78;;;9.90;99.90;;;;;;5077889;28;20369;-89
2021/07/12 11:11:22;;;;;;;12.30;4.45;;;9.90;99.90;;;;;;5072001;28;20852;-88
2021/07/12 11:13:49;;;;;;;10.47;5.20;;;9.80;99.90;;;;;;5082644;28;20408;-88
2021/07/12 11:16:19;;;;;;;12.45;5.38;;;9.80;99.90;;;;;;5078346;28;20390;-87
2021/07/12 11:18:47;;;;;;;10.80;4.57;;;9.80;99.90;;;;;;5048440;28;20421;-89
2021/07/12 11:21:15;;;;;;;11.63;5.80;;;9.80;99.90;;;;;;5079420;28;20387;-89
2021/07/12 11:23:51;;;;;;;11.30;5.38;;;9.70;99.90;;;;;;5077830;28;20414;-89
2021/07/12 11:26:21;;;;;;;9.20;5.53;;;9.60;99.90;;;;;;5084719;28;20384;-89
2021/07/12 11:28:56;;;;;;;12.68;5.45;;;9.50;99.90;;;;;;5071015;28;20559;-89
2021/07/12 11:31:52;;;;;;;8.55;5.32;;;9.40;99.90;;;;;;5069296;28;20406;-89
2021/07/12 11:34:27;;;;;;;10.52;5.78;;;9.40;99.90;;;;;;5065585;28;20394;-89
2021/07/12 11:37:08;;;;;;;11.00;6.47;;;9.20;99.90;;;;;;5066213;28;20385;-90
2021/07/12 11:39:57;;;;;;;12.73;6.88;;;9.10;99.90;;;;;;5072602;28;20388;-90
2021/07/12 11:42:31;;;;;;;12.35;7.40;;;9.10;99.90;;;;;;5090928;28;20450;-89
2021/07/12 11:45:05;;;;;;;15.48;8.55;;;8.90;99.90;;;;;;5081331;28;20396;-89
2021/07/12 11:47:39;;;;;;;30.75;23.58;;;8.90;99.90;;;;;;5074102;28;20444;-89
2021/07/12 11:50:09;;;;;;;18.70;12.27;;;8.80;99.90;;;;;;5074149;28;20470;-89
2021/07/12 11:52:39;;;;;;;13.50;6.07;;;8.90;99.90;;;;;;5066005;28;20378;-90
2021/07/12 11:55:09;;;;;;;9.65;3.75;;;8.90;99.90;;;;;;5065426;28;20829;-88
2021/07/12 11:57:38;;;;;;;8.48;3.58;;;9.10;99.90;;;;;;5065583;28;20432;-89
2021/07/12 12:00:11;;;;;;;8.98;5.03;;;9.20;99.90;;;;;;5075884;28;20387;-89
2021/07/12 12:02:40;;;;;;;11.82;5.68;;;9.10;99.90;;;;;;5082537;28;20396;-90
2021/07/12 12:05:11;;;;;;;15.90;10.45;;;9.10;99.90;;;;;;5085197;28;20380;-90
2021/07/12 12:07:48;;;;;;;44.35;34.10;;;9.00;99.90;;;;;;5085273;28;20380;-91
2021/07/12 12:10:24;;;;;;;89.55;77.47;;;8.90;99.90;;;;;;5084607;28;20399;-91
2021/07/12 12:12:58;;;;;;;72.40;61.05;;;8.70;99.90;;;;;;5086379;28;20369;-90
2021/07/12 12:15:34;;;;;;;72.38;62.97;;;8.70;99.90;;;;;;5076227;28;20403;-89
2021/07/12 12:18:07;;;;;;;78.03;68.97;;;8.60;99.90;;;;;;5063143;28;20398;-90
2021/07/12 12:20:40;;;;;;;68.55;61.33;;;8.50;99.90;;;;;;5075422;28;20388;-89
2021/07/12 12:23:16;;;;;;;52.17;46.58;;;8.50;99.90;;;;;;5068946;28;20413;-89
2021/07/12 12:26:03;;;;;;;33.83;30.17;;;8.40;99.90;;;;;;5067341;28;21077;-89
2021/07/12 12:29:04;;;;;;;18.20;13.18;;;8.50;99.90;;;;;;5058674;28;20421;-90
2021/07/12 12:31:32;;;;;;;23.63;18.05;;;8.60;99.90;;;;;;5073858;28;21061;-89
2021/07/12 12:34:13;;;;;;;19.60;16.95;;;8.70;99.90;;;;;;5080368;28;20406;-89
2021/07/12 12:36:45;;;;;;;21.50;15.65;;;8.60;99.90;;;;;;5070303;28;20443;-88
2021/07/12 12:39:18;;;;;;;21.02;16.13;;;8.50;99.90;;;;;;5085219;28;20400;-88
2021/07/12 12:41:57;;;;;;;18.63;13.43;;;8.60;99.90;;;;;;5079270;28;20414;-89
2021/07/12 12:44:41;;;;;;;14.32;8.88;;;8.60;99.90;;;;;;5076258;28;20390;-87
2021/07/12 12:47:08;;;;;;;15.23;10.50;;;8.70;99.90;;;;;;5073511;28;21025;-89
2021/07/12 12:49:37;;;;;;;17.92;12.18;;;8.80;99.90;;;;;;5072779;28;20382;-89
2021/07/12 12:52:15;;;;;;;19.08;11.93;;;8.80;99.90;;;;;;5086843;28;20810;-89
2021/07/12 12:54:46;;;;;;;13.43;10.20;;;8.90;99.90;;;;;;5073225;28;20401;-88
2021/07/12 12:57:14;;;;;;;15.40;10.57;;;8.90;99.90;;;;;;5081520;28;20397;-89
2021/07/12 12:59:43;;;;;;;14.77;7.50;;;9.10;99.90;;;;;;5079366;28;20857;-92
2021/07/12 13:02:16;;;;;;;11.13;8.18;;;9.10;99.90;;;;;;5059777;28;20424;-91